createdAt,value
2023-03-17T00:00:39.271Z,-1.06
2023-03-17T00:03:22.268Z,-1.04
2023-03-17T00:05:50.264Z,-1.05
2023-03-17T00:08:23.175Z,-1.07
2023-03-17T00:10:51.779Z,-1.07
2023-03-17T00:13:19.714Z,-1.07
2023-03-17T00:15:52.352Z,-1.07
2023-03-17T00:18:20.540Z,-1.07
2023-03-17T00:20:48.907Z,-1.04
2023-03-17T00:23:24.458Z,-1.03
2023-03-17T00:25:54.374Z,-1.03
2023-03-17T00:28:24.121Z,-1.04
2023-03-17T00:30:56.506Z,-1.06
2023-03-17T00:33:26.834Z,-1.08
2023-03-17T00:35:55.323Z,-1.11
2023-03-17T00:38:24.481Z,-1.15
2023-03-17T00:40:52.389Z,-1.18
2023-03-17T00:43:23.259Z,-1.20
2023-03-17T00:45:51.516Z,-1.20
2023-03-17T00:48:20.847Z,-1.20
2023-03-17T00:50:49.799Z,-1.18
2023-03-17T00:53:19.650Z,-1.17
2023-03-17T00:55:48.044Z,-1.18
2023-03-17T00:58:19.290Z,-1.19
2023-03-17T01:00:47.553Z,-1.19
2023-03-17T01:03:15.668Z,-1.19
2023-03-17T01:05:43.554Z,-1.21
2023-03-17T01:08:12.070Z,-1.23
2023-03-17T01:10:42.796Z,-1.23
2023-03-17T01:13:12.365Z,-1.26
2023-03-17T01:15:44.519Z,-1.29
2023-03-17T01:18:14.646Z,-1.32
2023-03-17T01:20:42.799Z,-1.32
2023-03-17T01:23:10.879Z,-1.31
2023-03-17T01:25:53.291Z,-1.32
2023-03-17T01:28:32.040Z,-1.32
2023-03-17T01:31:00.637Z,-1.31
2023-03-17T01:33:29.136Z,-1.31
2023-03-17T01:35:56.888Z,-1.34
2023-03-17T01:38:24.777Z,-1.39
2023-03-17T01:40:53.688Z,-1.44
2023-03-17T01:43:23.886Z,-1.52
2023-03-17T01:46:22.804Z,-1.54
2023-03-17T01:49:15.719Z,-1.55
2023-03-17T01:51:52.666Z,-1.56
2023-03-17T01:54:37.319Z,-1.56
2023-03-17T01:57:10.764Z,-1.57
2023-03-17T01:59:42.369Z,-1.56
2023-03-17T02:02:11.196Z,-1.55
2023-03-17T02:04:40.377Z,-1.53
2023-03-17T02:07:08.451Z,-1.49
2023-03-17T02:09:38.719Z,-1.42
2023-03-17T02:12:07.057Z,-1.32
2023-03-17T02:14:36.644Z,-1.25
2023-03-17T02:17:04.590Z,-1.20
2023-03-17T02:19:32.447Z,-1.14
2023-03-17T02:22:00.372Z,-1.07
2023-03-17T02:24:31.011Z,-1.00
2023-03-17T02:27:03.738Z,-0.89
2023-03-17T02:29:34.180Z,-0.77
2023-03-17T02:32:02.759Z,-0.72
2023-03-17T02:34:31.845Z,-0.65
2023-03-17T02:36:59.770Z,-0.59
2023-03-17T02:39:28.092Z,-0.55
2023-03-17T02:41:56.052Z,-0.51
2023-03-17T02:44:24.040Z,-0.49
2023-03-17T02:46:54.450Z,-0.46
2023-03-17T02:49:22.817Z,-0.44
2023-03-17T02:51:50.748Z,-0.41
2023-03-17T02:54:19.395Z,-0.41
2023-03-17T02:56:47.166Z,-0.41
2023-03-17T02:59:14.976Z,-0.40
2023-03-17T03:01:44.070Z,-0.42
2023-03-17T03:04:12.041Z,-0.41
2023-03-17T03:06:42.762Z,-0.40
2023-03-17T03:09:11.926Z,-0.41
2023-03-17T03:11:39.862Z,-0.41
2023-03-17T03:14:08.229Z,-0.42
2023-03-17T03:16:36.147Z,-0.44
2023-03-17T03:19:04.606Z,-0.46
2023-03-17T03:21:32.601Z,-0.48
2023-03-17T03:24:00.388Z,-0.46
2023-03-17T03:26:28.470Z,-0.46
2023-03-17T03:28:58.517Z,-0.48
2023-03-17T03:31:26.816Z,-0.49
2023-03-17T03:33:54.673Z,-0.50
2023-03-17T03:36:22.623Z,-0.51
2023-03-17T03:38:50.489Z,-0.50
2023-03-17T03:41:18.378Z,-0.49
2023-03-17T03:43:46.332Z,-0.47
2023-03-17T03:46:15.723Z,-0.44
2023-03-17T03:48:43.743Z,-0.44
2023-03-17T03:51:11.562Z,-0.44
2023-03-17T03:53:39.375Z,-0.47
2023-03-17T03:56:07.618Z,-0.50
2023-03-17T03:58:35.772Z,-0.53
2023-03-17T04:01:05.374Z,-0.58
2023-03-17T04:03:33.557Z,-0.62
2023-03-17T04:06:01.397Z,-0.65
2023-03-17T04:08:29.612Z,-0.68
2023-03-17T04:10:58.009Z,-0.71
2023-03-17T04:13:25.781Z,-0.73
2023-03-17T04:15:53.627Z,-0.78
2023-03-17T04:18:21.749Z,-0.81
2023-03-17T04:20:49.579Z,-0.83
2023-03-17T04:23:17.595Z,-0.87
2023-03-17T04:25:46.101Z,-0.87
2023-03-17T04:28:14.323Z,-0.86
2023-03-17T04:30:42.564Z,-0.85
2023-03-17T04:33:10.904Z,-0.85
2023-03-17T04:35:38.950Z,-0.86
2023-03-17T04:38:07.461Z,-0.86
2023-03-17T04:40:35.838Z,-0.87
2023-03-17T04:43:04.224Z,-0.89
2023-03-17T04:45:32.770Z,-0.91
2023-03-17T04:48:01.020Z,-0.93
2023-03-17T04:50:29.702Z,-0.95
2023-03-17T04:52:58.020Z,-0.98
2023-03-17T04:55:26.227Z,-0.99
2023-03-17T04:57:54.399Z,-1.00
2023-03-17T05:00:25.837Z,-1.00
2023-03-17T05:02:54.111Z,-0.99
2023-03-17T05:05:22.280Z,-0.98
2023-03-17T05:07:50.533Z,-0.96
2023-03-17T05:10:18.761Z,-0.93
2023-03-17T05:12:47.409Z,-0.90
2023-03-17T05:15:16.034Z,-0.85
2023-03-17T05:17:44.172Z,-0.76
2023-03-17T05:20:12.784Z,-0.69
2023-03-17T05:22:41.006Z,-0.60
2023-03-17T05:25:09.325Z,-0.50
2023-03-17T05:27:39.924Z,-0.39
2023-03-17T05:30:09.599Z,-0.30
2023-03-17T05:32:37.737Z,-0.17
2023-03-17T05:35:06.281Z,-0.05
2023-03-17T05:37:35.027Z,0.07
2023-03-17T05:40:03.603Z,0.20
2023-03-17T05:42:31.823Z,0.29
2023-03-17T05:45:00.193Z,0.37
2023-03-17T05:47:28.515Z,0.42
2023-03-17T05:49:57.104Z,0.44
2023-03-17T05:52:25.218Z,0.46
2023-03-17T05:54:53.660Z,0.46
2023-03-17T05:57:21.978Z,0.47
2023-03-17T05:59:51.142Z,0.44
2023-03-17T06:02:19.336Z,0.43
2023-03-17T06:04:47.451Z,0.42
2023-03-17T06:07:15.475Z,0.43
2023-03-17T06:09:43.602Z,0.45
2023-03-17T06:12:11.652Z,0.52
2023-03-17T06:14:39.857Z,0.57
2023-03-17T06:17:08.482Z,0.66
2023-03-17T06:19:36.619Z,0.76
2023-03-17T06:22:04.796Z,0.82
2023-03-17T06:24:33.502Z,0.83
2023-03-17T06:27:01.570Z,0.77
2023-03-17T06:29:30.220Z,0.74
2023-03-17T06:32:06.322Z,0.78
2023-03-17T06:34:45.445Z,0.79
2023-03-17T06:37:13.447Z,0.86
2023-03-17T06:39:42.456Z,0.91
2023-03-17T06:42:10.473Z,1.04
2023-03-17T06:44:38.688Z,1.14
2023-03-17T06:47:06.933Z,1.27
2023-03-17T06:49:34.982Z,1.41
2023-03-17T06:52:03.128Z,1.54
2023-03-17T06:54:31.779Z,1.63
2023-03-17T06:56:59.923Z,1.71
2023-03-17T06:59:28.137Z,1.77
2023-03-17T07:01:56.471Z,1.91
2023-03-17T07:04:24.545Z,2.01
2023-03-17T07:06:52.565Z,2.05
2023-03-17T07:09:21.036Z,2.09
2023-03-17T07:11:49.786Z,2.19
2023-03-17T07:14:18.834Z,2.29
2023-03-17T07:16:48.649Z,2.42
2023-03-17T07:19:16.862Z,2.45
2023-03-17T07:21:46.897Z,2.48
2023-03-17T07:24:15.399Z,2.57
2023-03-17T07:26:43.786Z,2.68
2023-03-17T07:29:11.849Z,2.72
2023-03-17T07:31:39.953Z,2.83
2023-03-17T07:34:08.005Z,2.88
2023-03-17T07:36:36.107Z,2.91
2023-03-17T07:39:04.243Z,3.00
2023-03-17T07:41:32.237Z,3.22
2023-03-17T07:44:00.776Z,3.28
2023-03-17T07:46:28.958Z,3.24
2023-03-17T07:48:57.032Z,3.40
2023-03-17T07:51:28.343Z,3.51
2023-03-17T07:54:03.896Z,3.76
2023-03-17T07:56:32.388Z,4.07
2023-03-17T07:59:00.429Z,4.38
2023-03-17T08:01:28.520Z,4.73
2023-03-17T08:03:56.757Z,4.88
2023-03-17T08:06:27.885Z,5.00
2023-03-17T08:08:55.932Z,5.15
2023-03-17T08:11:24.231Z,5.16
2023-03-17T08:13:53.626Z,5.32
2023-03-17T08:16:22.194Z,5.43
2023-03-17T08:18:50.178Z,5.39
2023-03-17T08:21:18.164Z,5.39
2023-03-17T08:23:47.463Z,5.47
2023-03-17T08:26:16.071Z,5.59
2023-03-17T08:28:44.997Z,5.64
2023-03-17T08:31:15.449Z,5.65
2023-03-17T08:33:46.256Z,5.78
2023-03-17T08:36:18.032Z,6.11
2023-03-17T08:38:46.760Z,6.20
2023-03-17T08:41:17.072Z,6.39
2023-03-17T08:43:45.563Z,6.75
2023-03-17T08:46:22.185Z,6.83
2023-03-17T08:48:51.241Z,7.30
2023-03-17T08:51:22.084Z,7.54
2023-03-17T08:53:52.081Z,7.80
2023-03-17T08:56:20.121Z,8.27
2023-03-17T08:58:48.390Z,8.48
2023-03-17T09:01:16.762Z,8.69
2023-03-17T09:03:45.723Z,8.85
2023-03-17T09:06:13.789Z,9.05
2023-03-17T09:08:45.203Z,9.40
2023-03-17T09:11:18.075Z,9.54
2023-03-17T09:13:46.618Z,9.28
2023-03-17T09:16:14.915Z,8.85
2023-03-17T09:18:43.202Z,8.68
2023-03-17T09:21:12.154Z,8.94
2023-03-17T09:23:40.330Z,9.12
2023-03-17T09:26:09.220Z,9.02
2023-03-17T09:28:37.480Z,9.20
2023-03-17T09:31:06.401Z,9.28
2023-03-17T09:33:34.727Z,9.30
2023-03-17T09:36:02.742Z,9.35
2023-03-17T09:38:31.959Z,9.36
2023-03-17T09:41:02.641Z,9.65
2023-03-17T09:43:52.755Z,9.92
2023-03-17T09:46:23.659Z,10.09
2023-03-17T09:49:12.702Z,10.21
2023-03-17T09:51:40.842Z,10.26
2023-03-17T09:54:22.046Z,10.21
2023-03-17T09:56:54.062Z,10.38
2023-03-17T09:59:22.067Z,10.47
2023-03-17T10:01:50.421Z,10.31
2023-03-17T10:04:18.984Z,10.28
2023-03-17T10:06:48.446Z,10.14
2023-03-17T10:09:42.870Z,10.06
2023-03-17T10:12:32.459Z,9.79
2023-03-17T10:15:06.901Z,9.98
2023-03-17T10:17:35.846Z,9.93
2023-03-17T10:20:17.987Z,9.85
2023-03-17T10:22:50.465Z,9.90
2023-03-17T10:25:22.361Z,9.75
2023-03-17T10:27:57.801Z,9.83
2023-03-17T10:30:26.176Z,9.96
2023-03-17T10:32:56.321Z,10.28
2023-03-17T10:35:24.641Z,10.26
2023-03-17T10:38:04.394Z,10.19
2023-03-17T10:40:40.587Z,10.27
2023-03-17T10:43:14.434Z,10.26
2023-03-17T10:45:47.949Z,10.32
2023-03-17T10:48:19.305Z,10.15
2023-03-17T10:50:49.296Z,10.08
2023-03-17T10:53:19.681Z,9.90
2023-03-17T10:55:52.056Z,9.90
2023-03-17T10:58:22.633Z,9.90
2023-03-17T11:01:00.167Z,9.91
2023-03-17T11:03:30.126Z,9.92
2023-03-17T11:06:02.457Z,10.00
2023-03-17T11:08:41.716Z,10.17
2023-03-17T11:11:21.354Z,10.14
2023-03-17T11:13:49.380Z,10.06
2023-03-17T11:16:22.543Z,9.87
2023-03-17T11:18:58.046Z,9.74
2023-03-17T11:21:52.383Z,9.72
2023-03-17T11:24:25.385Z,9.78
2023-03-17T11:27:17.982Z,9.61
2023-03-17T11:30:17.566Z,9.63
2023-03-17T11:32:48.111Z,9.54
2023-03-17T11:35:25.178Z,9.55
2023-03-17T11:38:21.075Z,9.71
2023-03-17T11:41:05.054Z,9.73
2023-03-17T11:43:44.061Z,9.72
2023-03-17T11:46:44.426Z,9.75
2023-03-17T11:49:24.349Z,9.95
2023-03-17T11:52:12.408Z,9.91
2023-03-17T11:54:54.368Z,10.12
2023-03-17T11:57:25.495Z,10.48
2023-03-17T12:00:00.051Z,10.78
2023-03-17T12:02:30.984Z,10.90
2023-03-17T12:05:10.961Z,11.17
2023-03-17T12:07:58.370Z,11.22
2023-03-17T12:10:35.008Z,11.09
2023-03-17T12:13:07.580Z,11.25
2023-03-17T12:15:43.719Z,11.53
2023-03-17T12:18:16.197Z,11.53
2023-03-17T12:20:58.994Z,11.52
2023-03-17T12:23:49.793Z,11.46
2023-03-17T12:26:32.092Z,11.49
2023-03-17T12:29:15.591Z,11.64
2023-03-17T12:32:05.784Z,11.83
2023-03-17T12:34:44.779Z,11.85
2023-03-17T12:37:13.072Z,11.70
2023-03-17T12:39:41.345Z,11.62
2023-03-17T12:42:16.696Z,11.40
2023-03-17T12:44:48.001Z,11.06
2023-03-17T12:47:43.125Z,10.76
2023-03-17T12:50:32.934Z,11.05
2023-03-17T12:53:20.122Z,11.46
2023-03-17T12:55:50.129Z,11.77
2023-03-17T12:58:29.650Z,11.91
2023-03-17T13:01:07.253Z,12.25
2023-03-17T13:03:37.269Z,12.56
2023-03-17T13:06:07.688Z,12.73
2023-03-17T13:08:38.160Z,12.71
2023-03-17T13:11:37.561Z,12.79
2023-03-17T13:14:34.182Z,12.89
2023-03-17T13:17:17.942Z,12.96
2023-03-17T13:20:14.571Z,12.80
2023-03-17T13:23:11.520Z,12.75
2023-03-17T13:25:40.105Z,12.62
2023-03-17T13:28:13.939Z,12.52
2023-03-17T13:30:49.680Z,12.35
2023-03-17T13:33:25.037Z,12.17
2023-03-17T13:36:09.523Z,12.07
2023-03-17T13:38:52.515Z,12.17
2023-03-17T13:41:40.772Z,12.12
2023-03-17T13:44:43.358Z,12.18
2023-03-17T13:47:17.436Z,12.24
2023-03-17T13:49:51.484Z,12.15
2023-03-17T13:52:39.626Z,12.04
2023-03-17T13:55:23.859Z,12.06
2023-03-17T13:58:11.704Z,12.03
2023-03-17T14:00:41.861Z,12.31
2023-03-17T14:03:48.980Z,12.36
2023-03-17T14:06:18.890Z,12.42
2023-03-17T14:09:00.011Z,12.23
2023-03-17T14:11:40.681Z,12.19
2023-03-17T14:14:31.473Z,12.24
2023-03-17T14:17:12.249Z,12.36
2023-03-17T14:19:41.934Z,12.45
2023-03-17T14:22:21.553Z,12.44
2023-03-17T14:24:56.180Z,12.41
2023-03-17T14:27:24.299Z,12.11
2023-03-17T14:29:52.517Z,11.90
2023-03-17T14:32:21.717Z,11.80
2023-03-17T14:34:57.707Z,11.81
2023-03-17T14:37:26.133Z,11.82
2023-03-17T14:39:55.771Z,11.66
2023-03-17T14:42:31.568Z,11.71
2023-03-17T14:45:07.455Z,11.66
2023-03-17T14:47:38.970Z,11.41
2023-03-17T14:50:31.059Z,11.33
2023-03-17T14:52:59.886Z,11.20
2023-03-17T14:55:43.329Z,11.21
2023-03-17T14:58:28.918Z,11.18
2023-03-17T15:01:02.653Z,11.09
2023-03-17T15:03:31.895Z,11.13
2023-03-17T15:06:28.117Z,11.08
2023-03-17T15:09:00.682Z,11.00
2023-03-17T15:11:38.277Z,10.88
2023-03-17T15:14:22.152Z,10.80
2023-03-17T15:16:51.506Z,10.83
2023-03-17T15:19:21.429Z,10.81
2023-03-17T15:21:49.690Z,10.80
2023-03-17T15:24:39.745Z,10.75
2023-03-17T15:27:14.979Z,10.82
2023-03-17T15:29:43.195Z,10.81
2023-03-17T15:32:15.416Z,10.82
2023-03-17T15:34:43.579Z,10.84
2023-03-17T15:37:32.494Z,10.80
2023-03-17T15:40:01.420Z,10.62
2023-03-17T15:42:31.215Z,10.62
2023-03-17T15:45:02.861Z,10.60
2023-03-17T15:47:37.071Z,10.54
2023-03-17T15:50:16.214Z,10.38
2023-03-17T15:52:44.785Z,10.14
2023-03-17T15:55:19.319Z,9.98
2023-03-17T15:57:54.748Z,9.86
2023-03-17T16:00:24.991Z,9.67
2023-03-17T16:02:56.339Z,9.56
2023-03-17T16:05:26.702Z,9.47
2023-03-17T16:07:55.507Z,9.36
2023-03-17T16:10:28.331Z,9.27
2023-03-17T16:12:56.600Z,9.14
2023-03-17T16:15:26.610Z,9.05
2023-03-17T16:17:55.872Z,8.96
2023-03-17T16:20:36.109Z,8.89
2023-03-17T16:23:14.883Z,8.81
2023-03-17T16:25:43.291Z,8.70
2023-03-17T16:28:16.951Z,8.65
2023-03-17T16:30:46.150Z,8.56
2023-03-17T16:33:22.638Z,8.45
2023-03-17T16:35:52.613Z,8.35
2023-03-17T16:38:22.658Z,8.25
2023-03-17T16:40:55.314Z,8.14
2023-03-17T16:43:26.567Z,8.07
2023-03-17T16:45:56.516Z,7.98
2023-03-17T16:48:24.963Z,7.93
2023-03-17T16:50:53.347Z,7.87
2023-03-17T16:53:21.604Z,7.84
2023-03-17T16:55:50.304Z,7.75
2023-03-17T16:58:26.332Z,7.67
2023-03-17T17:00:57.646Z,7.61
2023-03-17T17:03:25.989Z,7.60
2023-03-17T17:05:54.176Z,7.57
2023-03-17T17:08:22.737Z,7.55
2023-03-17T17:10:51.559Z,7.54
2023-03-17T17:13:19.833Z,7.48
2023-03-17T17:15:48.040Z,7.47
2023-03-17T17:18:27.200Z,7.43
2023-03-17T17:20:57.113Z,7.40
2023-03-17T17:23:26.829Z,7.34
2023-03-17T17:25:55.011Z,7.26
2023-03-17T17:28:23.796Z,7.22
2023-03-17T17:30:52.251Z,7.16
2023-03-17T17:33:20.461Z,7.13
2023-03-17T17:35:48.876Z,7.07
2023-03-17T17:38:26.829Z,7.03
2023-03-17T17:41:02.485Z,6.97
2023-03-17T17:43:30.614Z,6.91
2023-03-17T17:45:58.566Z,6.86
2023-03-17T17:48:27.118Z,6.81
2023-03-17T17:50:56.203Z,6.77
2023-03-17T17:53:24.420Z,6.73
2023-03-17T17:55:52.533Z,6.66
2023-03-17T17:58:24.517Z,6.60
2023-03-17T18:00:55.726Z,6.56
2023-03-17T18:03:25.432Z,6.55
2023-03-17T18:05:54.334Z,6.54
2023-03-17T18:08:23.130Z,6.50
2023-03-17T18:10:52.277Z,6.48
2023-03-17T18:13:20.557Z,6.46
2023-03-17T18:15:49.666Z,6.41
2023-03-17T18:18:17.657Z,6.41
2023-03-17T18:20:45.661Z,6.44
2023-03-17T18:23:13.722Z,6.40
2023-03-17T18:25:41.724Z,6.35
2023-03-17T18:28:09.794Z,6.33
2023-03-17T18:30:38.383Z,6.30
2023-03-17T18:33:09.480Z,6.29
2023-03-17T18:35:37.638Z,6.20
2023-03-17T18:38:05.805Z,6.12
2023-03-17T18:40:34.208Z,6.07
2023-03-17T18:43:02.450Z,6.05
2023-03-17T18:45:30.386Z,5.99
2023-03-17T18:47:58.274Z,5.91
2023-03-17T18:50:26.619Z,5.89
2023-03-17T18:52:55.878Z,5.88
2023-03-17T18:55:23.815Z,5.88
2023-03-17T18:57:52.192Z,5.87
2023-03-17T19:00:20.436Z,5.83
2023-03-17T19:02:48.558Z,5.82
2023-03-17T19:05:16.674Z,5.81
2023-03-17T19:07:44.747Z,5.80
2023-03-17T19:10:12.775Z,5.80
2023-03-17T19:12:41.197Z,5.80
2023-03-17T19:15:10.791Z,5.75
2023-03-17T19:17:39.568Z,5.70
2023-03-17T19:20:08.285Z,5.69
2023-03-17T19:22:36.383Z,5.74
2023-03-17T19:25:04.531Z,5.74
2023-03-17T19:27:33.438Z,5.73
2023-03-17T19:30:01.765Z,5.73
2023-03-17T19:32:29.867Z,5.76
2023-03-17T19:34:57.907Z,5.77
2023-03-17T19:37:26.215Z,5.77
2023-03-17T19:39:54.455Z,5.75
2023-03-17T19:42:22.467Z,5.80
2023-03-17T19:44:50.646Z,5.82
2023-03-17T19:47:18.665Z,5.79
2023-03-17T19:49:47.286Z,5.76
2023-03-17T19:52:15.521Z,5.77
2023-03-17T19:54:46.137Z,5.78
2023-03-17T19:57:14.577Z,5.78
2023-03-17T19:59:43.121Z,5.83
2023-03-17T20:02:13.206Z,5.87
2023-03-17T20:04:41.480Z,5.92
2023-03-17T20:07:09.865Z,5.89
2023-03-17T20:09:38.007Z,5.84
2023-03-17T20:12:06.219Z,5.76
2023-03-17T20:14:34.654Z,5.81
2023-03-17T20:17:02.855Z,5.88
2023-03-17T20:19:31.121Z,5.88
2023-03-17T20:21:59.050Z,5.87
2023-03-17T20:24:29.274Z,5.85
2023-03-17T20:26:59.506Z,5.82
2023-03-17T20:29:28.417Z,5.82
2023-03-17T20:31:56.492Z,5.89
2023-03-17T20:34:24.621Z,5.93
2023-03-17T20:36:52.951Z,5.92
2023-03-17T20:39:21.755Z,5.88
2023-03-17T20:41:50.946Z,5.86
2023-03-17T20:44:19.095Z,5.84
2023-03-17T20:46:48.324Z,5.84
2023-03-17T20:49:17.414Z,5.84
2023-03-17T20:51:46.415Z,5.82
2023-03-17T20:54:14.764Z,5.84
2023-03-17T20:56:43.017Z,5.82
2023-03-17T20:59:19.763Z,5.80
2023-03-17T21:02:18.687Z,5.73
2023-03-17T21:08:34.119Z,5.71
2023-03-17T21:11:02.901Z,5.70
2023-03-17T21:13:31.695Z,5.61
2023-03-17T21:16:00.801Z,5.55
2023-03-17T21:18:29.734Z,5.57
2023-03-17T21:20:57.886Z,5.56
2023-03-17T21:23:27.485Z,5.54
2023-03-17T21:25:56.272Z,5.48
2023-03-17T21:28:24.288Z,5.50
2023-03-17T21:30:52.289Z,5.49
2023-03-17T21:33:21.608Z,5.51
2023-03-17T21:35:50.001Z,5.50
2023-03-17T21:38:18.050Z,5.46
2023-03-17T21:40:46.094Z,5.42
2023-03-17T21:43:15.085Z,5.41
2023-03-17T21:45:44.758Z,5.36
2023-03-17T21:48:12.967Z,5.32
2023-03-17T21:50:41.459Z,5.38
2023-03-17T21:53:10.401Z,5.36
2023-03-17T21:55:38.518Z,5.31
2023-03-17T21:58:08.360Z,5.29
2023-03-17T22:00:45.091Z,5.30
2023-03-17T22:03:14.086Z,5.28
2023-03-17T22:05:42.542Z,5.25
2023-03-17T22:08:11.365Z,5.19
2023-03-17T22:10:40.254Z,5.14
2023-03-17T22:13:08.643Z,5.15
2023-03-17T22:15:37.250Z,5.10
2023-03-17T22:18:06.251Z,5.05
2023-03-17T22:20:34.769Z,5.00
2023-03-17T22:23:03.407Z,4.98
2023-03-17T22:25:31.479Z,4.96
2023-03-17T22:27:59.756Z,4.90
2023-03-17T22:30:27.797Z,4.88
2023-03-17T22:32:55.848Z,4.86
2023-03-17T22:35:25.177Z,4.82
2023-03-17T22:37:53.169Z,4.75
2023-03-17T22:40:21.631Z,4.76
2023-03-17T22:42:49.616Z,4.78
2023-03-17T22:45:17.840Z,4.78
2023-03-17T22:47:46.250Z,4.77
2023-03-17T22:50:14.671Z,4.75
2023-03-17T22:52:42.776Z,4.71
2023-03-17T22:55:10.893Z,4.68
2023-03-17T22:57:41.740Z,4.65
2023-03-17T23:00:19.469Z,4.67
2023-03-17T23:02:57.785Z,4.66
2023-03-17T23:05:32.172Z,4.68
2023-03-17T23:08:05.700Z,4.70
2023-03-17T23:10:33.989Z,4.67
2023-03-17T23:13:01.950Z,4.62
2023-03-17T23:15:30.062Z,4.57
2023-03-17T23:17:58.851Z,4.55
2023-03-17T23:20:26.913Z,4.51
2023-03-17T23:22:58.292Z,4.46
2023-03-17T23:25:26.710Z,4.41
2023-03-17T23:27:54.777Z,4.37
2023-03-17T23:30:22.784Z,4.32
2023-03-17T23:32:50.822Z,4.28
2023-03-17T23:35:19.657Z,4.29
2023-03-17T23:37:47.588Z,4.28
2023-03-17T23:40:17.421Z,4.23
2023-03-17T23:42:49.168Z,4.20
2023-03-17T23:45:18.215Z,4.17
2023-03-17T23:47:46.905Z,4.19
2023-03-17T23:50:15.998Z,4.18
2023-03-17T23:52:44.110Z,4.15
2023-03-17T23:55:12.295Z,4.17
2023-03-17T23:57:40.255Z,4.19
